Kerteh Airport Kerteh MY
ICAO: WMKE
IATA:
Category: Medium
Scheduled Services:

Elevation: 18 ft
TransAlt. 11000 ft.

Airport Communications:
GND:121.8
TWR:123.3

WMKE Zoom In..

Runways:

(A) RW 16 length 4469 ft width 98 ft
---- / hdg 162

(B) RW 34 length 4469 ft width 98 ft
ILS 108.70 / hdg 342

Location; WMKE
Day. 06 / Time. 22.00 Zulu
* QNH: 1008
* Temperature: 25° c. 77°f.
* Wind from: 000° Speed 00 kn.
Dewpoint: 25° c.

WMKE 062200Z AUTO 00000KT //// // ////// 25/25 Q1008


Wind - Calm.

 
 
jpsmedia worldairports.se 2020   terms of use